• Join FlightAware (Why Join?)
  • Login
  • US Flag 
01:39AM EDT


 

Airport Tracker/Info


-or-


 

Live Flight TrackerFlight Track Log ✈ UAL4336 ✈ 24-Apr-2013 ✈ KIAH - KBTR

Flight Track Log - Related Links

Times and Time Zones

All times are in EDT time to prevent confusion due to time zone crossing. See the UAL4336 flight status page for this flight to view local times or setup timezone preferences in your user account.

Time Position Orientation Groundspeed Altitude Reporting Facility
EDT Latitude Longitude Course Direction KTS MPH feet Rate Location/Type
10:27AM 29.9778 -95.3344 122° Southeast 151 174 700  Level Houston Center
10:28AM 29.9467 -95.3622 218° Southwest 227 261 2,200 1,560 Climbing Houston Center
10:29AM 29.9211 -95.3344 137° Southeast 251 289 3,100 1,560 Climbing Houston Center
10:29AM 29.9022 -95.2906 116° Southeast 270 311 4,000 2,400 Climbing Houston Center
10:30AM 29.4971 -95.0202 150° Southeast  Level FlightAware Approximate
10:30AM 29.8719 -95.2122 114° Southeast 287 330 6,400  Level Houston Center
10:31AM 29.3363 -94.9130 150° Southeast  Level FlightAware Approximate
10:31AM 29.8581 -95.1692 110° East 283 326 7,700  Level Houston Center
10:32AM 29.2138 -94.7653 126° Southeast  Level FlightAware Approximate
10:32AM 29.7742 -95.1114 149° Southeast 294 338 10,300  Level Houston Center
10:33AM 29.1126 -94.5867 122° Southeast  Level FlightAware Approximate
10:33AM 29.6867 -95.0669 156° South 328 377 11,600  Level Houston Center
10:34AM 29.5889 -95.0206 158° South 363 418 13,000 1,380 Climbing Houston Center
10:35AM 29.4889 -94.9733 158° South 382 440 14,500 1,500 Climbing Houston Center
10:36AM 29.3892 -94.9258 157° South 386 444 16,100 1,500 Climbing Houston Center
10:37AM 29.2903 -94.8758 156° South 386 444 17,600 1,320 Climbing Houston Center
10:38AM 29.2211 -94.7764 129° Southeast 408 470 18,900 660 Climbing Houston Center
10:39AM 29.1581 -94.6600 122° Southeast 426 490 19,000  Climbing Houston Center
10:40AM 29.1244 -94.4931 103° East 461 531 19,000  Level Houston Center
10:41AM 29.1192 -94.3467 92° East 465 535 19,000  Level Houston Center
10:42AM 29.1133 -94.2022 93° East 459 528 19,000  Level Houston Center
10:43AM 29.1528 -94.0669 72° East 457 526 19,000  Level Houston Center
10:44AM 29.2136 -93.9414 61° Northeast 454 522 19,000  Level Houston Center
10:45AM 29.2892 -93.7897 60° Northeast 454 522 19,000 -60 Level Houston Center
10:46AM 29.3514 -93.6650 60° Northeast 451 519 18,900  Descending Houston Center
10:47AM 29.4133 -93.5386 61° Northeast 456 525 19,000  Climbing Houston Center
10:48AM 29.4739 -93.4147 61° Northeast 452 520 18,900  Descending Houston Center
10:49AM 29.5358 -93.2914 60° Northeast 450 518 19,000  Climbing Houston Center
10:50AM 29.5964 -93.1656 61° Northeast 451 519 19,000  Level Houston Center
10:51AM 29.6689 -93.0133 61° Northeast 454 522 19,000  Level Houston Center
10:52AM 29.7311 -92.8858 61° Northeast 458 527 19,000  Level Houston Center
10:54AM 29.7906 -92.7603 61° Northeast 453 521 19,000 -60 Level Houston Center
10:55AM 29.8522 -92.6342 61° Northeast 453 521 18,900  Descending Houston Center
10:56AM 29.9083 -92.5042 64° Northeast 457 526 19,000  Climbing Houston Center
10:57AM 29.9572 -92.3406 71° East 452 520 19,000 -60 Level Houston Center
10:58AM 30.0047 -92.2086 67° East 447 514 18,900  Descending Houston Center
10:59AM 30.0531 -92.0758 67° East 449 517 19,000 -420 Climbing Houston Center
11:00AM 30.1072 -91.9444 64° Northeast 455 524 18,100 -1,380 Descending Houston Center
11:01AM 30.1539 -91.8208 66° East 430 495 16,200 -1,740 Descending Houston Center
11:02AM 30.2006 -91.7114 64° Northeast 395 455 14,600 -1,560 Descending Houston Center
11:03AM 30.2514 -91.5958 63° Northeast 348 400 13,000 -1,980 Descending Houston Center
11:04AM 30.2858 -91.5028 67° East 324 373 10,600 -2,400 Descending Houston Center
11:05AM 30.3342 -91.4228 55° Northeast 313 360 8,200 -2,220 Descending Houston Center
11:06AM 30.3947 -91.3628 41° Northeast 294 338 6,100 -1,980 Descending Houston Center
11:07AM 30.4636 -91.3397 16° North 271 312 4,200 -1,440 Descending Houston Center
11:08AM 30.5494 -91.3206 11° North 268 308 3,200 -1,020 Descending Houston Center